LEVX/VGO METAR and TAF weather

Enter ICAO airport designator
Station Type Date Time Source
LEVX METAR 2019/04/18 10:30 UTC NOAA

LEVX 181030Z 11008KT 060V190 9999 SCT025 17/10 Q1013 NOSIG


Station Type Date Time Source
LEVX Decoded METAR 2019/04/18 10:30 UTC NOAA

Vigo / Peinador, Spain (LEVX) 42-13N 008-38W 255M
Apr 18, 2019 - 06:30 AM EDT / 2019.04.18 1030 UTC
Wind: from the ESE (110 degrees) at 9 MPH (8 KT) (direction variable):0
Visibility: greater than 7 mile(s):0
Sky conditions: partly cloudy
Temperature: 62 F (17 C)
Dew Point: 50 F (10 C)
Relative Humidity: 63%
Pressure (altimeter): 29.91 in. Hg (1013 hPa)
ob: LEVX 181030Z 11008KT 060V190 9999 SCT025 17/10 Q1013 NOSIG
cycle: 10

Station Type Date Time Source
LEVX TAF 2019/04/18 06:27 UTC NOAA

TAF LEVX 180500Z 1806/1906 17005KT 9999 SCT020 BKN030 TX15/1815Z TN09/1806Z
TEMPO 1806/1807 3000 -RA BR BKN005 PROB40
TEMPO 1806/1807 0600 BCFG VV001
TEMPO 1809/1818 3000 RA SHRA SCT030TCU
TEMPO 1812/1818 27010KT PROB40
TEMPO 1812/1818 3000 TSRA SCT030CB PROB40
TEMPO 1900/1906 1500 -RA BCFG BKN010

Example: see airport list